Eko 5 — SVAR7 — position and weather

sailwx.info

Track history (hours):
 
Tides and Currents Weather Stations Pressure Air Temp Water Temp Dewpoint Dewpoint Depression Visibility Wind Speed Wind Dir Waves Ship Positions

Eko 5

Last reported at 2017-Nov-15 12:48 UTC. Time now 2017-Nov-20 19:03 UTC.
Position N 37°38' E 023°49'.

Length 88 m; draft 5.4 m.

Type: Ship. MMSI: 240911000.

Date/timePositionNaut miles runAvg speedWind from/ knotsBaromVisibWave heightAir tempDewpointWater temp
2017-Nov-15 12:48N 37°38' E 023°49'3 8.9
2017-Nov-15 12:29N 37°38' E 023°46'4 8.3
2017-Nov-15 12:01N 37°41' E 023°42'4 9.0
2017-Nov-15 11:30N 37°45' E 023°39'4 8.9
2017-Nov-15 11:00N 37°49' E 023°37'4 8.6
2017-Nov-15 10:31N 37°54' E 023°36'4 7.3
2017-Nov-15 10:00N 37°57' E 023°35'3 6.8
2017-Nov-15 09:30N 37°60' E 023°33'2 4.0
2017-Nov-15 09:00N 38°02' E 023°31'0 0.0
2017-Nov-15 08:27N 38°02' E 023°31'0 0.0
2017-Nov-15 08:00N 38°02' E 023°31'0 0.0
2017-Nov-15 07:30N 38°02' E 023°31'0 0.0
2017-Nov-15 07:00N 38°02' E 023°31'0 0.0
2017-Nov-15 06:30N 38°02' E 023°31'0 0.0
2017-Nov-15 06:00N 38°02' E 023°31'0 0.0
2017-Nov-15 05:30N 38°02' E 023°31'0 0.0
2017-Nov-15 04:57N 38°02' E 023°31'0 0.0
2017-Nov-15 04:30N 38°02' E 023°31'0 0.0
2017-Nov-15 03:57N 38°02' E 023°31'0 0.0
2017-Nov-15 03:30N 38°02' E 023°31'0 0.0
2017-Nov-15 03:00N 38°02' E 023°31'0 0.0
2017-Nov-15 02:30N 38°02' E 023°31'0 0.0
2017-Nov-15 02:00N 38°02' E 023°31'0 0.0
2017-Nov-15 01:30N 38°02' E 023°31'0 0.0
2017-Nov-15 01:00N 38°02' E 023°31'0 0.0
2017-Nov-15 00:30N 38°02' E 023°31'0 0.0
2017-Nov-15 00:00N 38°02' E 023°31'0 0.0
2017-Nov-14 23:30N 38°02' E 023°31'0 0.0
2017-Nov-14 23:00N 38°02' E 023°31'0 0.0
2017-Nov-14 22:30N 38°02' E 023°31'0 0.0
2017-Nov-14 22:00N 38°02' E 023°31'0 0.0
2017-Nov-14 21:30N 38°02' E 023°31'0 0.0
2017-Nov-14 21:00N 38°02' E 023°31'0 0.0
2017-Nov-14 20:30N 38°02' E 023°31'0 0.0
2017-Nov-14 20:00N 38°02' E 023°31'0 0.0
2017-Nov-14 19:30N 38°02' E 023°31'0 0.0
2017-Nov-14 19:00N 38°02' E 023°31'0 0.0
2017-Nov-14 18:30N 38°02' E 023°31'0 0.0
2017-Nov-14 18:00N 38°02' E 023°31'0 0.1
2017-Nov-14 17:30N 38°02' E 023°31'0 0.0
2017-Nov-14 17:00N 38°02' E 023°31'0 0.1
2017-Nov-14 16:30N 38°02' E 023°31'0 0.2
2017-Nov-14 16:00N 38°01' E 023°31'0 0.2
2017-Nov-14 15:30N 38°02' E 023°31'0 0.1
2017-Nov-14 15:00N 38°02' E 023°31'0 0.0
2017-Nov-14 14:30N 38°02' E 023°31'0 0.0
2017-Nov-14 14:00N 38°02' E 023°31'1 1.5
2017-Nov-14 13:28N 38°02' E 023°30'0 0.4
2017-Nov-14 12:58N 38°02' E 023°31'0 0.0
2017-Nov-14 12:28N 38°02' E 023°31'0 0.0
2017-Nov-14 11:58N 38°02' E 023°31'0 0.0
2017-Nov-14 11:28N 38°02' E 023°31'0 0.0
2017-Nov-14 10:58N 38°02' E 023°31'0 0.0
2017-Nov-14 10:28N 38°02' E 023°31'0 0.0
2017-Nov-14 09:58N 38°02' E 023°31'0 0.0
2017-Nov-14 09:28N 38°02' E 023°31'0 0.0
2017-Nov-14 08:58N 38°02' E 023°31'0 0.0
2017-Nov-14 08:28N 38°02' E 023°31'0 0.0
2017-Nov-14 07:58N 38°02' E 023°31'0 0.0
2017-Nov-14 07:28N 38°02' E 023°31'0 0.0
2017-Nov-14 06:55N 38°02' E 023°31'0 0.0
2017-Nov-14 06:28N 38°02' E 023°31'0 0.0
2017-Nov-14 05:58N 38°02' E 023°31'0 0.0
2017-Nov-14 05:28N 38°02' E 023°31'0 0.0
2017-Nov-14 04:58N 38°02' E 023°31'0 0.0
2017-Nov-14 04:28N 38°02' E 023°31'0 0.0
2017-Nov-14 03:58N 38°02' E 023°31'0 0.0
2017-Nov-14 03:28N 38°02' E 023°31'0 0.0
2017-Nov-14 02:58N 38°02' E 023°31'0 0.0
2017-Nov-14 02:28N 38°02' E 023°31'0 0.0
2017-Nov-14 01:58N 38°02' E 023°31'0 0.0
2017-Nov-14 01:28N 38°02' E 023°31'0 0.0
2017-Nov-14 00:58N 38°02' E 023°31'0 0.0
2017-Nov-14 00:28N 38°02' E 023°31'0 0.0
2017-Nov-13 23:58N 38°02' E 023°31'0 0.0
2017-Nov-13 23:28N 38°02' E 023°31'0 0.0
2017-Nov-13 22:58N 38°02' E 023°31'0 0.0
2017-Nov-13 22:28N 38°02' E 023°31'0 0.0
2017-Nov-13 21:58N 38°02' E 023°31'54 2.0
2017-Nov-12 19:08N 38°49' E 024°04'  
2017-Nov-09 13:17N 37°44' E 024°19'26 9.0
2017-Nov-09 10:23N 37°39' E 023°47'3 9.3
2017-Nov-09 10:00N 37°40' E 023°43'5 9.8
2017-Nov-09 09:30N 37°44' E 023°40'510.0
2017-Nov-09 09:00N 37°49' E 023°37'5 9.9
2017-Nov-09 08:31N 37°54' E 023°36'4 8.2
2017-Nov-09 08:01N 37°57' E 023°34'4 8.1
2017-Nov-09 07:31N 38°01' E 023°32'1 1.3
2017-Nov-09 06:58N 38°01' E 023°31'0 0.0
2017-Nov-09 06:28N 38°01' E 023°31'0 0.0
2017-Nov-09 05:55N 38°01' E 023°31'0 0.1
2017-Nov-09 05:28N 38°01' E 023°31'0 0.0
2017-Nov-09 04:58N 38°01' E 023°31'0 0.0
2017-Nov-09 04:28N 38°01' E 023°31'0 0.0
2017-Nov-09 03:58N 38°01' E 023°31'0 0.0
2017-Nov-09 03:28N 38°01' E 023°31'0 0.0
2017-Nov-09 02:58N 38°01' E 023°31'0 0.0
2017-Nov-09 02:28N 38°01' E 023°31'0 0.1
2017-Nov-09 01:58N 38°01' E 023°31'0 0.0
2017-Nov-09 01:25N 38°01' E 023°31'0 0.1
2017-Nov-09 00:58N 38°01' E 023°31'0 0.0
2017-Nov-09 00:28N 38°01' E 023°31'0 0.1
2017-Nov-08 23:58N 38°01' E 023°31'0 0.0
2017-Nov-08 23:28N 38°01' E 023°31'0 0.0
2017-Nov-08 22:58N 38°01' E 023°31'0 0.1
2017-Nov-08 22:25N 38°01' E 023°31'0 0.0
2017-Nov-08 21:58N 38°01' E 023°31'0 0.0
2017-Nov-08 21:28N 38°01' E 023°31'0 0.1
2017-Nov-08 20:58N 38°01' E 023°31'1 1.7
2017-Nov-08 20:30N 38°02' E 023°30'0 0.2
2017-Nov-08 19:58N 38°02' E 023°31'0 0.0
2017-Nov-08 19:28N 38°02' E 023°31'0 0.0
2017-Nov-08 18:58N 38°02' E 023°31'0 0.0
2017-Nov-08 18:28N 38°02' E 023°31'0 0.0
2017-Nov-08 17:58N 38°02' E 023°31'0 0.0
2017-Nov-08 17:28N 38°02' E 023°31'0 0.0
2017-Nov-08 16:58N 38°02' E 023°31'0 0.0
2017-Nov-08 16:28N 38°02' E 023°31'0 0.0
2017-Nov-08 15:59N 38°02' E 023°31'0 0.0
2017-Nov-08 15:28N 38°02' E 023°31'0 0.0
2017-Nov-08 14:58N 38°02' E 023°31'0 0.0
2017-Nov-08 14:28N 38°02' E 023°31'0 0.0
2017-Nov-08 13:58N 38°02' E 023°31'0 0.0
2017-Nov-08 13:28N 38°02' E 023°31'0 0.0
2017-Nov-08 12:59N 38°02' E 023°31'0 0.0
2017-Nov-08 12:28N 38°02' E 023°31'0 0.0
2017-Nov-08 11:58N 38°02' E 023°31'0 0.0
2017-Nov-08 11:29N 38°02' E 023°31'0 0.0
2017-Nov-08 10:59N 38°02' E 023°31'0 0.0
2017-Nov-08 10:28N 38°02' E 023°31'0 0.0
2017-Nov-08 09:58N 38°02' E 023°31'0 0.0
2017-Nov-08 09:28N 38°02' E 023°31'0 0.0
2017-Nov-08 08:58N 38°02' E 023°31'0 0.0
2017-Nov-08 08:28N 38°02' E 023°31'0 0.0
2017-Nov-08 07:58N 38°02' E 023°31'0 0.0
2017-Nov-08 07:28N 38°02' E 023°31'0 0.0
2017-Nov-08 06:58N 38°02' E 023°31'0 0.0
2017-Nov-08 06:28N 38°02' E 023°31'0 0.0
2017-Nov-08 05:58N 38°02' E 023°31'0 0.0
2017-Nov-08 05:28N 38°02' E 023°31'0 0.0
2017-Nov-08 04:58N 38°02' E 023°31'0 0.0
2017-Nov-08 04:28N 38°02' E 023°31'0 0.0
2017-Nov-08 03:58N 38°02' E 023°31'0 0.0
2017-Nov-08 03:28N 38°02' E 023°31'0 0.0
2017-Nov-08 02:58N 38°02' E 023°31'0 0.0
2017-Nov-08 02:28N 38°02' E 023°31'0 0.0
2017-Nov-08 01:58N 38°02' E 023°31'0 0.0
2017-Nov-08 01:28N 38°02' E 023°31'0 0.0
2017-Nov-08 00:58N 38°02' E 023°31'0 0.0
2017-Nov-08 00:28N 38°02' E 023°31'0 0.0
2017-Nov-07 23:58N 38°02' E 023°31'0 0.0
2017-Nov-07 23:28N 38°02' E 023°31'0 0.0
2017-Nov-07 22:58N 38°02' E 023°31'0 0.0
2017-Nov-07 22:28N 38°02' E 023°31'0 0.0
2017-Nov-07 21:58N 38°02' E 023°31'0 0.0
2017-Nov-07 21:28N 38°02' E 023°31'0 0.0
2017-Nov-07 20:58N 38°02' E 023°31'0 0.0
2017-Nov-07 20:28N 38°02' E 023°31'0 0.0
2017-Nov-07 19:58N 38°02' E 023°31'0 0.0
2017-Nov-07 19:28N 38°02' E 023°31'0 0.0
2017-Nov-07 18:58N 38°02' E 023°31'0 0.0
2017-Nov-07 18:28N 38°02' E 023°31'0 0.0
2017-Nov-07 17:58N 38°02' E 023°31'0 0.0
2017-Nov-07 17:28N 38°02' E 023°31'0 0.0
2017-Nov-07 16:58N 38°02' E 023°31'0 0.0
2017-Nov-07 16:28N 38°02' E 023°31'0 0.5
2017-Nov-07 15:59N 38°02' E 023°30'1 1.8
2017-Nov-07 15:30N 38°02' E 023°32'0 0.0
2017-Nov-07 15:00N 38°01' E 023°32'0 0.0
2017-Nov-07 14:30N 38°02' E 023°32'0 0.0
2017-Nov-07 14:00N 38°01' E 023°32'0 0.0
2017-Nov-07 13:30N 38°02' E 023°32'0 0.0
2017-Nov-07 13:00N 38°02' E 023°32'0 0.0
2017-Nov-07 12:30N 38°02' E 023°32'0 0.0
2017-Nov-07 12:00N 38°01' E 023°32'0 0.0
2017-Nov-07 11:30N 38°01' E 023°32'0 0.0
2017-Nov-07 11:00N 38°01' E 023°32'0 0.0
2017-Nov-07 10:30N 38°01' E 023°32'0 0.0
2017-Nov-07 10:00N 38°01' E 023°32'0 0.0
2017-Nov-07 09:30N 38°01' E 023°32'0 0.0
2017-Nov-07 09:00N 38°01' E 023°32'0 0.1
2017-Nov-07 08:30N 38°01' E 023°32'0 0.1
2017-Nov-07 08:00N 38°01' E 023°32'0 0.0
2017-Nov-07 07:30N 38°01' E 023°32'0 0.0
2017-Nov-07 07:00N 38°01' E 023°32'0 0.0
2017-Nov-07 06:30N 38°01' E 023°32'0 0.0
2017-Nov-07 05:57N 38°01' E 023°32'0 0.0
2017-Nov-07 05:30N 38°01' E 023°32'0 0.0
2017-Nov-07 05:00N 38°01' E 023°32'0 0.0
2017-Nov-07 04:30N 38°01' E 023°32'0 0.0
2017-Nov-07 04:00N 38°01' E 023°32'0 0.0
2017-Nov-07 03:30N 38°01' E 023°32'0 0.0
2017-Nov-07 03:00N 38°01' E 023°32'0 0.0
2017-Nov-07 02:30N 38°01' E 023°32'0 0.0
2017-Nov-07 02:00N 38°01' E 023°32'0 0.0
2017-Nov-07 01:30N 38°01' E 023°32'0 0.0
2017-Nov-07 01:00N 38°01' E 023°32'0 0.1
2017-Nov-07 00:30N 38°01' E 023°32'0 0.7
2017-Nov-07 00:01N 38°01' E 023°31'2 4.4
2017-Nov-06 23:30N 38°01' E 023°34'2 2.8
2017-Nov-06 22:58N 38°02' E 023°36'0 0.0
2017-Nov-06 22:28N 38°02' E 023°36'0 0.0
2017-Nov-06 21:58N 38°02' E 023°36'0 0.0
2017-Nov-06 21:28N 38°02' E 023°36'0 0.0
2017-Nov-06 20:58N 38°02' E 023°36'0 0.0
2017-Nov-06 20:28N 38°02' E 023°36'  
Track history (hours):
 
Tides and Currents Weather Stations Pressure Air Temp Water Temp Dewpoint Dewpoint Depression Visibility Wind Speed Wind Dir Waves Ship Positions

Eko 5

Last reported at 2017-Nov-15 12:48 UTC. Time now 2017-Nov-20 19:03 UTC.
Position N 37°38' E 023°49'.

Length 88 m; draft 5.4 m.

Type: Ship. MMSI: 240911000.

Date/timePositionNaut miles runAvg speedWind from/ knotsBaromVisibWave heightAir tempDewpointWater temp
2017-Nov-15 12:48N 37°38' E 023°49'3 8.9
2017-Nov-15 12:29N 37°38' E 023°46'4 8.3
2017-Nov-15 12:01N 37°41' E 023°42'4 9.0
2017-Nov-15 11:30N 37°45' E 023°39'4 8.9
2017-Nov-15 11:00N 37°49' E 023°37'4 8.6
2017-Nov-15 10:31N 37°54' E 023°36'4 7.3
2017-Nov-15 10:00N 37°57' E 023°35'3 6.8
2017-Nov-15 09:30N 37°60' E 023°33'2 4.0
2017-Nov-15 09:00N 38°02' E 023°31'0 0.0
2017-Nov-15 08:27N 38°02' E 023°31'0 0.0
2017-Nov-15 08:00N 38°02' E 023°31'0 0.0
2017-Nov-15 07:30N 38°02' E 023°31'0 0.0
2017-Nov-15 07:00N 38°02' E 023°31'0 0.0
2017-Nov-15 06:30N 38°02' E 023°31'0 0.0
2017-Nov-15 06:00N 38°02' E 023°31'0 0.0
2017-Nov-15 05:30N 38°02' E 023°31'0 0.0
2017-Nov-15 04:57N 38°02' E 023°31'0 0.0
2017-Nov-15 04:30N 38°02' E 023°31'0 0.0
2017-Nov-15 03:57N 38°02' E 023°31'0 0.0
2017-Nov-15 03:30N 38°02' E 023°31'0 0.0
2017-Nov-15 03:00N 38°02' E 023°31'0 0.0
2017-Nov-15 02:30N 38°02' E 023°31'0 0.0
2017-Nov-15 02:00N 38°02' E 023°31'0 0.0
2017-Nov-15 01:30N 38°02' E 023°31'0 0.0
2017-Nov-15 01:00N 38°02' E 023°31'0 0.0
2017-Nov-15 00:30N 38°02' E 023°31'0 0.0
2017-Nov-15 00:00N 38°02' E 023°31'0 0.0
2017-Nov-14 23:30N 38°02' E 023°31'0 0.0
2017-Nov-14 23:00N 38°02' E 023°31'0 0.0
2017-Nov-14 22:30N 38°02' E 023°31'0 0.0
2017-Nov-14 22:00N 38°02' E 023°31'0 0.0
2017-Nov-14 21:30N 38°02' E 023°31'0 0.0
2017-Nov-14 21:00N 38°02' E 023°31'0 0.0
2017-Nov-14 20:30N 38°02' E 023°31'0 0.0
2017-Nov-14 20:00N 38°02' E 023°31'0 0.0
2017-Nov-14 19:30N 38°02' E 023°31'0 0.0
2017-Nov-14 19:00N 38°02' E 023°31'0 0.0
2017-Nov-14 18:30N 38°02' E 023°31'0 0.0
2017-Nov-14 18:00N 38°02' E 023°31'0 0.1
2017-Nov-14 17:30N 38°02' E 023°31'0 0.0
2017-Nov-14 17:00N 38°02' E 023°31'0 0.1
2017-Nov-14 16:30N 38°02' E 023°31'0 0.2
2017-Nov-14 16:00N 38°01' E 023°31'0 0.2
2017-Nov-14 15:30N 38°02' E 023°31'0 0.1
2017-Nov-14 15:00N 38°02' E 023°31'0 0.0
2017-Nov-14 14:30N 38°02' E 023°31'0 0.0
2017-Nov-14 14:00N 38°02' E 023°31'1 1.5
2017-Nov-14 13:28N 38°02' E 023°30'0 0.4
2017-Nov-14 12:58N 38°02' E 023°31'0 0.0
2017-Nov-14 12:28N 38°02' E 023°31'0 0.0
2017-Nov-14 11:58N 38°02' E 023°31'0 0.0
2017-Nov-14 11:28N 38°02' E 023°31'0 0.0
2017-Nov-14 10:58N 38°02' E 023°31'0 0.0
2017-Nov-14 10:28N 38°02' E 023°31'0 0.0
2017-Nov-14 09:58N 38°02' E 023°31'0 0.0
2017-Nov-14 09:28N 38°02' E 023°31'0 0.0
2017-Nov-14 08:58N 38°02' E 023°31'0 0.0
2017-Nov-14 08:28N 38°02' E 023°31'0 0.0
2017-Nov-14 07:58N 38°02' E 023°31'0 0.0
2017-Nov-14 07:28N 38°02' E 023°31'0 0.0
2017-Nov-14 06:55N 38°02' E 023°31'0 0.0
2017-Nov-14 06:28N 38°02' E 023°31'0 0.0
2017-Nov-14 05:58N 38°02' E 023°31'0 0.0
2017-Nov-14 05:28N 38°02' E 023°31'0 0.0
2017-Nov-14 04:58N 38°02' E 023°31'0 0.0
2017-Nov-14 04:28N 38°02' E 023°31'0 0.0
2017-Nov-14 03:58N 38°02' E 023°31'0 0.0
2017-Nov-14 03:28N 38°02' E 023°31'0 0.0
2017-Nov-14 02:58N 38°02' E 023°31'0 0.0
2017-Nov-14 02:28N 38°02' E 023°31'0 0.0
2017-Nov-14 01:58N 38°02' E 023°31'0 0.0
2017-Nov-14 01:28N 38°02' E 023°31'0 0.0
2017-Nov-14 00:58N 38°02' E 023°31'0 0.0
2017-Nov-14 00:28N 38°02' E 023°31'0 0.0
2017-Nov-13 23:58N 38°02' E 023°31'0 0.0
2017-Nov-13 23:28N 38°02' E 023°31'0 0.0
2017-Nov-13 22:58N 38°02' E 023°31'0 0.0
2017-Nov-13 22:28N 38°02' E 023°31'0 0.0
2017-Nov-13 21:58N 38°02' E 023°31'54 2.0
2017-Nov-12 19:08N 38°49' E 024°04'  
2017-Nov-09 13:17N 37°44' E 024°19'26 9.0
2017-Nov-09 10:23N 37°39' E 023°47'3 9.3
2017-Nov-09 10:00N 37°40' E 023°43'5 9.8
2017-Nov-09 09:30N 37°44' E 023°40'510.0
2017-Nov-09 09:00N 37°49' E 023°37'5 9.9
2017-Nov-09 08:31N 37°54' E 023°36'4 8.2
2017-Nov-09 08:01N 37°57' E 023°34'4 8.1
2017-Nov-09 07:31N 38°01' E 023°32'1 1.3
2017-Nov-09 06:58N 38°01' E 023°31'0 0.0
2017-Nov-09 06:28N 38°01' E 023°31'0 0.0
2017-Nov-09 05:55N 38°01' E 023°31'0 0.1
2017-Nov-09 05:28N 38°01' E 023°31'0 0.0
2017-Nov-09 04:58N 38°01' E 023°31'0 0.0
2017-Nov-09 04:28N 38°01' E 023°31'0 0.0
2017-Nov-09 03:58N 38°01' E 023°31'0 0.0
2017-Nov-09 03:28N 38°01' E 023°31'0 0.0
2017-Nov-09 02:58N 38°01' E 023°31'0 0.0
2017-Nov-09 02:28N 38°01' E 023°31'0 0.1
2017-Nov-09 01:58N 38°01' E 023°31'0 0.0
2017-Nov-09 01:25N 38°01' E 023°31'0 0.1
2017-Nov-09 00:58N 38°01' E 023°31'0 0.0
2017-Nov-09 00:28N 38°01' E 023°31'0 0.1
2017-Nov-08 23:58N 38°01' E 023°31'0 0.0
2017-Nov-08 23:28N 38°01' E 023°31'0 0.0
2017-Nov-08 22:58N 38°01' E 023°31'0 0.1
2017-Nov-08 22:25N 38°01' E 023°31'0 0.0
2017-Nov-08 21:58N 38°01' E 023°31'0 0.0
2017-Nov-08 21:28N 38°01' E 023°31'0 0.1
2017-Nov-08 20:58N 38°01' E 023°31'1 1.7
2017-Nov-08 20:30N 38°02' E 023°30'0 0.2
2017-Nov-08 19:58N 38°02' E 023°31'0 0.0
2017-Nov-08 19:28N 38°02' E 023°31'0 0.0
2017-Nov-08 18:58N 38°02' E 023°31'0 0.0
2017-Nov-08 18:28N 38°02' E 023°31'0 0.0
2017-Nov-08 17:58N 38°02' E 023°31'0 0.0
2017-Nov-08 17:28N 38°02' E 023°31'0 0.0
2017-Nov-08 16:58N 38°02' E 023°31'0 0.0
2017-Nov-08 16:28N 38°02' E 023°31'0 0.0
2017-Nov-08 15:59N 38°02' E 023°31'0 0.0
2017-Nov-08 15:28N 38°02' E 023°31'0 0.0
2017-Nov-08 14:58N 38°02' E 023°31'0 0.0
2017-Nov-08 14:28N 38°02' E 023°31'0 0.0
2017-Nov-08 13:58N 38°02' E 023°31'0 0.0
2017-Nov-08 13:28N 38°02' E 023°31'0 0.0
2017-Nov-08 12:59N 38°02' E 023°31'0 0.0
2017-Nov-08 12:28N 38°02' E 023°31'0 0.0
2017-Nov-08 11:58N 38°02' E 023°31'0 0.0
2017-Nov-08 11:29N 38°02' E 023°31'0 0.0
2017-Nov-08 10:59N 38°02' E 023°31'0 0.0
2017-Nov-08 10:28N 38°02' E 023°31'0 0.0
2017-Nov-08 09:58N 38°02' E 023°31'0 0.0
2017-Nov-08 09:28N 38°02' E 023°31'0 0.0
2017-Nov-08 08:58N 38°02' E 023°31'0 0.0
2017-Nov-08 08:28N 38°02' E 023°31'0 0.0
2017-Nov-08 07:58N 38°02' E 023°31'0 0.0
2017-Nov-08 07:28N 38°02' E 023°31'0 0.0
2017-Nov-08 06:58N 38°02' E 023°31'0 0.0
2017-Nov-08 06:28N 38°02' E 023°31'0 0.0
2017-Nov-08 05:58N 38°02' E 023°31'0 0.0
2017-Nov-08 05:28N 38°02' E 023°31'0 0.0
2017-Nov-08 04:58N 38°02' E 023°31'0 0.0
2017-Nov-08 04:28N 38°02' E 023°31'0 0.0
2017-Nov-08 03:58N 38°02' E 023°31'0 0.0
2017-Nov-08 03:28N 38°02' E 023°31'0 0.0
2017-Nov-08 02:58N 38°02' E 023°31'0 0.0
2017-Nov-08 02:28N 38°02' E 023°31'0 0.0
2017-Nov-08 01:58N 38°02' E 023°31'0 0.0
2017-Nov-08 01:28N 38°02' E 023°31'0 0.0
2017-Nov-08 00:58N 38°02' E 023°31'0 0.0
2017-Nov-08 00:28N 38°02' E 023°31'0 0.0
2017-Nov-07 23:58N 38°02' E 023°31'0 0.0
2017-Nov-07 23:28N 38°02' E 023°31'0 0.0
2017-Nov-07 22:58N 38°02' E 023°31'0 0.0
2017-Nov-07 22:28N 38°02' E 023°31'0 0.0
2017-Nov-07 21:58N 38°02' E 023°31'0 0.0
2017-Nov-07 21:28N 38°02' E 023°31'0 0.0
2017-Nov-07 20:58N 38°02' E 023°31'0 0.0
2017-Nov-07 20:28N 38°02' E 023°31'0 0.0
2017-Nov-07 19:58N 38°02' E 023°31'0 0.0
2017-Nov-07 19:28N 38°02' E 023°31'0 0.0
2017-Nov-07 18:58N 38°02' E 023°31'0 0.0
2017-Nov-07 18:28N 38°02' E 023°31'0 0.0
2017-Nov-07 17:58N 38°02' E 023°31'0 0.0
2017-Nov-07 17:28N 38°02' E 023°31'0 0.0
2017-Nov-07 16:58N 38°02' E 023°31'0 0.0
2017-Nov-07 16:28N 38°02' E 023°31'0 0.5
2017-Nov-07 15:59N 38°02' E 023°30'1 1.8
2017-Nov-07 15:30N 38°02' E 023°32'0 0.0
2017-Nov-07 15:00N 38°01' E 023°32'0 0.0
2017-Nov-07 14:30N 38°02' E 023°32'0 0.0
2017-Nov-07 14:00N 38°01' E 023°32'0 0.0
2017-Nov-07 13:30N 38°02' E 023°32'0 0.0
2017-Nov-07 13:00N 38°02' E 023°32'0 0.0
2017-Nov-07 12:30N 38°02' E 023°32'0 0.0
2017-Nov-07 12:00N 38°01' E 023°32'0 0.0
2017-Nov-07 11:30N 38°01' E 023°32'0 0.0
2017-Nov-07 11:00N 38°01' E 023°32'0 0.0
2017-Nov-07 10:30N 38°01' E 023°32'0 0.0
2017-Nov-07 10:00N 38°01' E 023°32'0 0.0
2017-Nov-07 09:30N 38°01' E 023°32'0 0.0
2017-Nov-07 09:00N 38°01' E 023°32'0 0.1
2017-Nov-07 08:30N 38°01' E 023°32'0 0.1
2017-Nov-07 08:00N 38°01' E 023°32'0 0.0
2017-Nov-07 07:30N 38°01' E 023°32'0 0.0
2017-Nov-07 07:00N 38°01' E 023°32'0 0.0
2017-Nov-07 06:30N 38°01' E 023°32'0 0.0
2017-Nov-07 05:57N 38°01' E 023°32'0 0.0
2017-Nov-07 05:30N 38°01' E 023°32'0 0.0
2017-Nov-07 05:00N 38°01' E 023°32'0 0.0
2017-Nov-07 04:30N 38°01' E 023°32'0 0.0
2017-Nov-07 04:00N 38°01' E 023°32'0 0.0
2017-Nov-07 03:30N 38°01' E 023°32'0 0.0
2017-Nov-07 03:00N 38°01' E 023°32'0 0.0
2017-Nov-07 02:30N 38°01' E 023°32'0 0.0
2017-Nov-07 02:00N 38°01' E 023°32'0 0.0
2017-Nov-07 01:30N 38°01' E 023°32'0 0.0
2017-Nov-07 01:00N 38°01' E 023°32'0 0.1
2017-Nov-07 00:30N 38°01' E 023°32'0 0.7
2017-Nov-07 00:01N 38°01' E 023°31'2 4.4
2017-Nov-06 23:30N 38°01' E 023°34'2 2.8
2017-Nov-06 22:58N 38°02' E 023°36'0 0.0
2017-Nov-06 22:28N 38°02' E 023°36'0 0.0
2017-Nov-06 21:58N 38°02' E 023°36'0 0.0
2017-Nov-06 21:28N 38°02' E 023°36'0 0.0
2017-Nov-06 20:58N 38°02' E 023°36'0 0.0
2017-Nov-06 20:28N 38°02' E 023°36'  

Dump ship's entire track history